Observation data for Dora on 03/24/2019      Previous  Date  Next       Current Mesonet Observations  Soil Data  Daily Summary Page  Observations in Plain Language
KDR1 240500Z 24009KT 09/M08 A3004 RMK A01 T00891084  RH  028%=      5-min Rain = 0
KDR1 240505Z 25010KT 09/M08 A3004 RMK A01 T00881084  RH  029%=      5-min Rain = 0
KDR1 240510Z 25009KT 09/M08 A3004 RMK A01 T00861083  RH  029%=      5-min Rain = 0
KDR1 240515Z 25009KT 09/M09 A3004 RMK A01 T00861085  RH  029%=      5-min Rain = 0
KDR1 240520Z 25008KT 08/M09 A3004 RMK A01 T00781085  RH  030%=      5-min Rain = 0
KDR1 240525Z 25008KT 08/M08 A3004 RMK A01 T00771083  RH  031%=      5-min Rain = 0
KDR1 240530Z 25008KT 08/M08 A3004 RMK A01 T00781084  RH  031%=      5-min Rain = 0
KDR1 240535Z 25007KT 08/M08 A3004 RMK A01 T00761084  RH  031%=      5-min Rain = 0
KDR1 240540Z 25007KT 08/M08 A3004 RMK A01 T00831083  RH  030%=      5-min Rain = 0
KDR1 240545Z 25007KT 08/M08 A3004 RMK A01 T00831084  RH  030%=      5-min Rain = 0
KDR1 240550Z 25007KT 08/M08 A3004 RMK A01 T00841083  RH  030%=      5-min Rain = 0
KDR1 240555Z 25007KT 09/M08 A3004 RMK A01 T00881083  RH  029%=      5-min Rain = 0
KDR1 240600Z 26007KT 09/M08 A3004 RMK A01 T00891083  RH  029%=      5-min Rain = 0
KDR1 240605Z 25008KT 09/M08 A3004 RMK A01 T00891083  RH  029%=      5-min Rain = 0
KDR1 240610Z 25007KT 08/M08 A3004 RMK A01 T00821082  RH  030%=      5-min Rain = 0
KDR1 240615Z 25007KT 08/M08 A3004 RMK A01 T00771081  RH  032%=      5-min Rain = 0
KDR1 240620Z 25007KT 08/M08 A3004 RMK A01 T00781079  RH  032%=      5-min Rain = 0
KDR1 240625Z 25007KT 08/M08 A3004 RMK A01 T00791077  RH  032%=      5-min Rain = 0
KDR1 240630Z 25008KT 08/M08 A3004 RMK A01 T00831077  RH  031%=      5-min Rain = 0
KDR1 240635Z 26008KT 09/M08 A3004 RMK A01 T00881077  RH  030%=      5-min Rain = 0
KDR1 240640Z 26008KT 09/M08 A3004 RMK A01 T00871077  RH  031%=      5-min Rain = 0
KDR1 240645Z 25008KT 09/M08 A3004 RMK A01 T00851077  RH  031%=      5-min Rain = 0
KDR1 240650Z 25008KT 09/M08 A3004 RMK A01 T00851078  RH  031%=      5-min Rain = 0
KDR1 240655Z 25008KT 08/M08 A3004 RMK A01 T00821078  RH  031%=      5-min Rain = 0
KDR1 240700Z 25008KT 08/M08 A3004 RMK A01 T00821078  RH  031%=      5-min Rain = 0
KDR1 240705Z 25008KT 09/M08 A3004 RMK A01 T00861078  RH  030%=      5-min Rain = 0
KDR1 240710Z 25007KT 09/M08 A3003 RMK A01 T00861078  RH  030%=      5-min Rain = 0
KDR1 240715Z 24007KT 08/M08 A3004 RMK A01 T00831078  RH  031%=      5-min Rain = 0
KDR1 240720Z 24008KT 08/M08 A3004 RMK A01 T00821077  RH  032%=      5-min Rain = 0
KDR1 240725Z 24007KT 07/M08 A3004 RMK A01 T00701078  RH  034%=      5-min Rain = 0
KDR1 240730Z 25006KT 08/M08 A3004 RMK A01 T00751078  RH  033%=      5-min Rain = 0
KDR1 240735Z 31006KT 08/M08 A3004 RMK A01 T00771077  RH  033%=      5-min Rain = 0
KDR1 240740Z 33006KT 07/M08 A3004 RMK A01 T00721075  RH  034%=      5-min Rain = 0
KDR1 240745Z 31006KT 07/M08 A3004 RMK A01 T00691076  RH  035%=      5-min Rain = 0
KDR1 240750Z 33005KT 07/M08 A3004 RMK A01 T00701077  RH  034%=      5-min Rain = 0
KDR1 240755Z 34005KT 07/M08 A3004 RMK A01 T00681077  RH  035%=      5-min Rain = 0
KDR1 240800Z 31004KT 07/M08 A3004 RMK A01 T00661078  RH  035%=      5-min Rain = 0
KDR1 240805Z 30004KT 06/M08 A3004 RMK A01 T00641077  RH  036%=      5-min Rain = 0
KDR1 240810Z 32004KT 07/M08 A3004 RMK A01 T00691076  RH  035%=      5-min Rain = 0
KDR1 240815Z 34006KT 07/M08 A3004 RMK A01 T00661077  RH  035%=      5-min Rain = 0
KDR1 240820Z 33007KT 05/M08 A3004 RMK A01 T00531080  RH  038%=      5-min Rain = 0
KDR1 240825Z 32008KT 06/M08 A3004 RMK A01 T00561076  RH  038%=      5-min Rain = 0
KDR1 240830Z 33009KT 05/M08 A3004 RMK A01 T00541075  RH  039%=      5-min Rain = 0
KDR1 240835Z 33009KT 05/M07 A3004 RMK A01 T00521073  RH  040%=      5-min Rain = 0
KDR1 240840Z 32009KT 05/M07 A3004 RMK A01 T00541071  RH  040%=      5-min Rain = 0
KDR1 240845Z 31010KT 06/M07 A3004 RMK A01 T00581071  RH  039%=      5-min Rain = 0
KDR1 240850Z 31009KT 06/M07 A3004 RMK A01 T00621071  RH  038%=      5-min Rain = 0
KDR1 240855Z 31008KT 06/M07 A3004 RMK A01 T00611072  RH  038%=      5-min Rain = 0
KDR1 240900Z 30005KT 05/M07 A3004 RMK A01 T00521072  RH  040%=      5-min Rain = 0
KDR1 240905Z 27004KT 06/M07 A3004 RMK A01 T00561073  RH  039%=      5-min Rain = 0
KDR1 240910Z 28004KT 06/M07 A3004 RMK A01 T00551071  RH  040%=      5-min Rain = 0
KDR1 240915Z 30005KT 07/M07 A3004 RMK A01 T00651069  RH  038%=      5-min Rain = 0
KDR1 240920Z 31006KT 07/M07 A3004 RMK A01 T00661073  RH  036%=      5-min Rain = 0
KDR1 240925Z 29006KT 06/M07 A3004 RMK A01 T00611074  RH  037%=      5-min Rain = 0
KDR1 240930Z 28005KT 07/M07 A3004 RMK A01 T00691074  RH  035%=      5-min Rain = 0
KDR1 240935Z 27005KT 07/M07 A3004 RMK A01 T00711073  RH  035%=      5-min Rain = 0
KDR1 240940Z 27006KT 07/M07 A3004 RMK A01 T00671073  RH  036%=      5-min Rain = 0
KDR1 240945Z 27007KT 06/M07 A3004 RMK A01 T00611073  RH  038%=      5-min Rain = 0
KDR1 240950Z 27007KT 06/M07 A3004 RMK A01 T00591073  RH  038%=      5-min Rain = 0
KDR1 240955Z 26007KT 05/M08 A3004 RMK A01 T00481075  RH  040%=      5-min Rain = 0
KDR1 241000Z 27006KT 05/M07 A3004 RMK A01 T00461074  RH  041%=      5-min Rain = 0
KDR1 241005Z 28007KT 05/M07 A3004 RMK A01 T00501073  RH  041%=      5-min Rain = 0
KDR1 241010Z 27006KT 05/M07 A3004 RMK A01 T00531073  RH  040%=      5-min Rain = 0
KDR1 241015Z 28006KT 06/M07 A3004 RMK A01 T00641072  RH  037%=      5-min Rain = 0
KDR1 241020Z 26006KT 07/M07 A3004 RMK A01 T00661074  RH  036%=      5-min Rain = 0
KDR1 241025Z 27005KT 06/M07 A3004 RMK A01 T00581074  RH  038%=      5-min Rain = 0
KDR1 241030Z 26005KT 06/M08 A3004 RMK A01 T00551075  RH  039%=      5-min Rain = 0
KDR1 241035Z 26006KT 05/M07 A3004 RMK A01 T00481074  RH  041%=      5-min Rain = 0
KDR1 241040Z 32007G12KT 05/M07 A3004 RMK A01 T00501072  RH  041%=      5-min Rain = 0
KDR1 241045Z 35009KT 05/M07 A3005 RMK A01 T00521070  RH  041%=      5-min Rain = 0
KDR1 241050Z 36008KT 05/M07 A3005 RMK A01 T00461071  RH  043%=      5-min Rain = 0
KDR1 241055Z 35008KT 04/M07 A3005 RMK A01 T00421073  RH  043%=      5-min Rain = 0
KDR1 241100Z 36009KT 05/M07 A3005 RMK A01 T00451068  RH  044%=      5-min Rain = 0
KDR1 241105Z 36009KT 05/M07 A3005 RMK A01 T00461068  RH  043%=      5-min Rain = 0
KDR1 241110Z 35009KT 04/M07 A3005 RMK A01 T00361071  RH  045%=      5-min Rain = 0
KDR1 241115Z 35009KT 03/M07 A3005 RMK A01 T00311070  RH  047%=      5-min Rain = 0
KDR1 241120Z 35008KT 03/M07 A3005 RMK A01 T00311065  RH  049%=      5-min Rain = 0
KDR1 241125Z 34006KT 03/M07 A3006 RMK A01 T00301066  RH  050%=      5-min Rain = 0
KDR1 241130Z 34007KT 03/M07 A3006 RMK A01 T00261066  RH  051%=      5-min Rain = 0
KDR1 241135Z 34007KT 03/M06 A3006 RMK A01 T00251062  RH  053%=      5-min Rain = 0
KDR1 241140Z 33006KT 02/M06 A3006 RMK A01 T00221061  RH  054%=      5-min Rain = 0
KDR1 241145Z 33006KT 02/M06 A3006 RMK A01 T00181060  RH  056%=      5-min Rain = 0
KDR1 241150Z 35006KT 02/M05 A3006 RMK A01 T00191051  RH  060%=      5-min Rain = 0
KDR1 241155Z 36006KT 02/M05 A3006 RMK A01 T00201046  RH  062%=      5-min Rain = 0
KDR1 241200Z 35005KT 02/M05 A3007 RMK A01 T00201046  RH  062%=      5-min Rain = 0
KDR1 241205Z 35005KT 02/M05 A3007 RMK A01 T00181047  RH  062%=      5-min Rain = 0
KDR1 241210Z 34006KT 02/M05 A3007 RMK A01 T00151048  RH  063%=      5-min Rain = 0
KDR1 241215Z 35006KT 02/M05 A3007 RMK A01 T00151045  RH  064%=      5-min Rain = 0
KDR1 241220Z 34007KT 01/M04 A3007 RMK A01 T00131044  RH  066%=      5-min Rain = 0
KDR1 241225Z 34006KT 01/M05 A3007 RMK A01 T00101046  RH  067%=      5-min Rain = 0
KDR1 241230Z 36006KT 01/M04 A3007 RMK A01 T00091044  RH  068%=      5-min Rain = 0
KDR1 241235Z 00005KT 01/M04 A3007 RMK A01 T00071044  RH  069%=      5-min Rain = 0
KDR1 241240Z 00005KT 01/M04 A3007 RMK A01 T00101038  RH  071%=      5-min Rain = 0
KDR1 241245Z 00005KT 02/M03 A3007 RMK A01 T00181028  RH  072%=      5-min Rain = 0
KDR1 241250Z 36005KT 02/M03 A3007 RMK A01 T00171032  RH  070%=      5-min Rain = 0
KDR1 241255Z 34006KT 01/M03 A3008 RMK A01 T00121034  RH  071%=      5-min Rain = 0
KDR1 241300Z 32007KT 02/M03 A3008 RMK A01 T00181027  RH  073%=      5-min Rain = 0
KDR1 241305Z 32008KT 02/M03 A3009 RMK A01 T00201025  RH  073%=      5-min Rain = 0
KDR1 241310Z 32007KT 02/M02 A3009 RMK A01 T00201024  RH  073%=      5-min Rain = 0
KDR1 241315Z 32006KT 02/M02 A3009 RMK A01 T00231020  RH  074%=      5-min Rain = 0
KDR1 241320Z 33005KT 03/M02 A3009 RMK A01 T00251019  RH  073%=      5-min Rain = 0
KDR1 241325Z 34005KT 03/M02 A3009 RMK A01 T00281016  RH  073%=      5-min Rain = 0
KDR1 241330Z 33005KT 03/M01 A3009 RMK A01 T00321013  RH  073%=      5-min Rain = 0
KDR1 241335Z 33005KT 04/M01 A301 RMK A01 T00371010  RH  072%=      5-min Rain = 0
KDR1 241340Z 33005KT 04/M01 A301 RMK A01 T00411007  RH  072%=      5-min Rain = 0
KDR1 241345Z 34006KT 05/M00 A301 RMK A01 T00481003  RH  070%=      5-min Rain = 0
KDR1 241350Z 34007KT 05/M00 A301 RMK A01 T00521001  RH  069%=      5-min Rain = 0
KDR1 241355Z 35007KT 05/M00 A301 RMK A01 T00531001  RH  069%=      5-min Rain = 0
KDR1 241400Z 35007KT 06/00 A301 RMK A01 T005500-0  RH  068%=      5-min Rain = 0
KDR1 241405Z 35007KT 06/00 A301 RMK A01 T00600002  RH  067%=      5-min Rain = 0
KDR1 241410Z 01007KT 06/00 A301 RMK A01 T00590001  RH  067%=      5-min Rain = 0
KDR1 241415Z 01008KT 06/00 A3011 RMK A01 T00590002  RH  068%=      5-min Rain = 0
KDR1 241420Z 01007KT 06/00 A3011 RMK A01 T00620004  RH  067%=      5-min Rain = 0
KDR1 241425Z 01007KT 06/00 A3011 RMK A01 T00620003  RH  067%=      5-min Rain = 0
KDR1 241430Z 02008KT 07/00 A3011 RMK A01 T00650004  RH  066%=      5-min Rain = 0
KDR1 241435Z 02007KT 07/00 A3011 RMK A01 T00650004  RH  066%=      5-min Rain = 0
KDR1 241440Z 02007KT 07/01 A3011 RMK A01 T00670005  RH  065%=      5-min Rain = 0
KDR1 241445Z 02007KT 07/01 A3011 RMK A01 T00690005  RH  065%=      5-min Rain = 0
KDR1 241450Z 04007KT 07/01 A3011 RMK A01 T00730007  RH  064%=      5-min Rain = 0
KDR1 241455Z 03007KT 08/01 A3012 RMK A01 T00800009  RH  061%=      5-min Rain = 0
KDR1 241500Z 03006KT 08/01 A3012 RMK A01 T00810008  RH  061%=      5-min Rain = 0
KDR1 241505Z 03006KT 08/01 A3012 RMK A01 T00810008  RH  061%=      5-min Rain = 0
KDR1 241510Z 03006KT 08/01 A3012 RMK A01 T00820008  RH  060%=      5-min Rain = 0
KDR1 241515Z 02005KT 08/01 A3012 RMK A01 T00840008  RH  060%=      5-min Rain = 0
KDR1 241520Z 01005KT 09/01 A3012 RMK A01 T00880009  RH  059%=      5-min Rain = 0
KDR1 241525Z 02005KT 09/01 A3013 RMK A01 T00880009  RH  059%=      5-min Rain = 0
KDR1 241530Z 02004KT 09/01 A3013 RMK A01 T00900010  RH  058%=      5-min Rain = 0
KDR1 241535Z 02004KT 09/01 A3013 RMK A01 T00920010  RH  057%=      5-min Rain = 0
KDR1 241540Z 02005KT 10/01 A3013 RMK A01 T00960011  RH  056%=      5-min Rain = 0
KDR1 241545Z 01005KT 10/01 A3013 RMK A01 T00990010  RH  055%=      5-min Rain = 0
KDR1 241550Z 01005KT 10/01 A3012 RMK A01 T01020011  RH  054%=      5-min Rain = 0
KDR1 241555Z 36005KT 11/01 A3012 RMK A01 T01050010  RH  053%=      5-min Rain = 0
KDR1 241600Z 01005KT 11/01 A3012 RMK A01 T01070011  RH  052%=      5-min Rain = 0
KDR1 241605Z 36006KT 11/01 A3012 RMK A01 T01130011  RH  050%=      5-min Rain = 0
KDR1 241610Z 01005KT 11/01 A3013 RMK A01 T01130008  RH  049%=      5-min Rain = 0
KDR1 241615Z 01004KT 12/01 A3013 RMK A01 T01160008  RH  048%=      5-min Rain = 0
KDR1 241620Z 36004KT 12/01 A3013 RMK A01 T01180008  RH  047%=      5-min Rain = 0
KDR1 241625Z 36005KT 12/01 A3013 RMK A01 T01220006  RH  045%=      5-min Rain = 0
KDR1 241630Z 36005KT 13/01 A3013 RMK A01 T01280007  RH  044%=      5-min Rain = 0
KDR1 241635Z 01006KT 13/01 A3013 RMK A01 T01270008  RH  045%=      5-min Rain = 0
KDR1 241640Z 01006KT 13/01 A3013 RMK A01 T01270006  RH  044%=      5-min Rain = 0
KDR1 241645Z 01006KT 13/01 A3013 RMK A01 T01300007  RH  043%=      5-min Rain = 0
KDR1 241650Z 36007KT 14/01 A3013 RMK A01 T01350008  RH  042%=      5-min Rain = 0
KDR1 241655Z 00007KT 14/01 A3013 RMK A01 T01370007  RH  042%=      5-min Rain = 0
KDR1 241700Z 35007KT 14/01 A3014 RMK A01 T01400005  RH  040%=      5-min Rain = 0
KDR1 241705Z 01005KT 14/01 A3014 RMK A01 T01410006  RH  040%=      5-min Rain = 0
KDR1 241710Z 35004KT 14/00 A3014 RMK A01 T01430004  RH  039%=      5-min Rain = 0
KDR1 241715Z 34004KT 15/00 A3014 RMK A01 T01500002  RH  037%=      5-min Rain = 0
KDR1 241720Z 31004KT 15/M00 A3013 RMK A01 T01491004  RH  035%=      5-min Rain = 0
KDR1 241725Z 00005KT 15/M00 A3013 RMK A01 T01461004  RH  036%=      5-min Rain = 0
KDR1 241730Z 33005KT 15/M01 A3013 RMK A01 T01501006  RH  035%=      5-min Rain = 0
KDR1 241735Z 34004KT 15/M01 A3013 RMK A01 T01511005  RH  035%=      5-min Rain = 0
KDR1 241740Z 33006KT 16/M01 A3013 RMK A01 T01551008  RH  033%=      5-min Rain = 0
KDR1 241745Z 35005KT 15/M01 A3013 RMK A01 T01501010  RH  034%=      5-min Rain = 0
KDR1 241750Z 33006KT 15/M01 A3013 RMK A01 T01491013  RH  033%=      5-min Rain = 0
KDR1 241755Z 32003KT 15/M01 A3013 RMK A01 T01521008  RH  034%=      5-min Rain = 0
KDR1 241800Z 01002KT 16/M01 A3013 RMK A01 T01551009  RH  033%=      5-min Rain = 0
KDR1 241805Z 22002KT 17/M01 A3013 RMK A01 T01691008  RH  030%=      5-min Rain = 0
KDR1 241810Z 23002KT 17/M01 A3013 RMK A01 T01701009  RH  030%=      5-min Rain = 0
KDR1 241815Z 34004KT 17/M01 A3012 RMK A01 T01701012  RH  029%=      5-min Rain = 0
KDR1 241820Z 35004KT 17/M01 A3012 RMK A01 T01731010  RH  029%=      5-min Rain = 0
KDR1 241825Z 29001KT 18/M01 A3012 RMK A01 T01761012  RH  028%=      5-min Rain = 0
KDR1 241830Z 24002KT 18/M01 A3012 RMK A01 T01801014  RH  027%=      5-min Rain = 0
KDR1 241835Z 29003KT 18/M02 A3011 RMK A01 T01831021  RH  025%=      5-min Rain = 0
KDR1 241840Z 35003KT 19/M02 A3011 RMK A01 T01891020  RH  025%=      5-min Rain = 0
KDR1 241845Z 35006G11KT 19/M02 A3011 RMK A01 T01871021  RH  025%=      5-min Rain = 0
KDR1 241850Z 34007KT 19/M03 A3011 RMK A01 T01861030  RH  023%=      5-min Rain = 0
KDR1 241855Z 29007G13KT 19/M03 A3011 RMK A01 T01921032  RH  022%=      5-min Rain = 0
KDR1 241900Z 29006KT 19/M03 A301 RMK A01 T01901033  RH  022%=      5-min Rain = 0
KDR1 241905Z 28005G10KT 20/M04 A301 RMK A01 T01951035  RH  021%=      5-min Rain = 0
KDR1 241910Z 31006KT 19/M04 A301 RMK A01 T01931038  RH  021%=      5-min Rain = 0
KDR1 241915Z 28005KT 19/M04 A301 RMK A01 T01921036  RH  021%=      5-min Rain = 0
KDR1 241920Z 30005KT 19/M04 A301 RMK A01 T01931036  RH  021%=      5-min Rain = 0
KDR1 241925Z 29003KT 19/M04 A301 RMK A01 T01911036  RH  021%=      5-min Rain = 0
KDR1 241930Z 29004KT 20/M03 A301 RMK A01 T02021033  RH  020%=      5-min Rain = 0
KDR1 241935Z 29006KT 20/M04 A301 RMK A01 T02021040  RH  019%=      5-min Rain = 0
KDR1 241940Z 29005G12KT 20/M04 A301 RMK A01 T02031043  RH  019%=      5-min Rain = 0
KDR1 241945Z 27006G14KT 21/M05 A301 RMK A01 T02121046  RH  017%=      5-min Rain = 0
KDR1 241950Z 28012G17KT 22/M06 A301 RMK A01 T02151055  RH  016%=      5-min Rain = 0
KDR1 241955Z 29007KT 21/M06 A301 RMK A01 T02081060  RH  016%=      5-min Rain = 0
KDR1 242000Z 25004KT 21/M06 A3009 RMK A01 T02091061  RH  016%=      5-min Rain = 0
KDR1 242005Z 26005G10KT 20/M06 A3009 RMK A01 T02041061  RH  016%=      5-min Rain = 0
KDR1 242010Z 22004KT 21/M06 A3009 RMK A01 T02051060  RH  016%=      5-min Rain = 0
KDR1 242015Z 26005G13KT 21/M06 A3008 RMK A01 T02121061  RH  015%=      5-min Rain = 0
KDR1 242020Z 23009KT 22/M07 A3008 RMK A01 T02151068  RH  014%=      5-min Rain = 0
KDR1 242025Z 23006G11KT 22/M07 A3008 RMK A01 T02181069  RH  014%=      5-min Rain = 0
KDR1 242030Z 27011G16KT 23/M07 A3008 RMK A01 T02251070  RH  013%=      5-min Rain = 0
KDR1 242035Z 27009G17KT 22/M08 A3008 RMK A01 T02191076  RH  013%=      5-min Rain = 0
KDR1 242040Z 27008G13KT 22/M08 A3008 RMK A01 T02221078  RH  013%=      5-min Rain = 0
KDR1 242045Z 25013KT 23/M08 A3008 RMK A01 T02281077  RH  012%=      5-min Rain = 0
KDR1 242050Z 25010G16KT 23/M08 A3008 RMK A01 T02301080  RH  012%=      5-min Rain = 0
KDR1 242055Z 27009G14KT 22/M08 A3008 RMK A01 T02241082  RH  012%=      5-min Rain = 0
KDR1 242100Z 25015G21KT 23/M09 A3007 RMK A01 T02301087  RH  011%=      5-min Rain = 0
KDR1 242105Z 26011G18KT 23/M09 A3007 RMK A01 T02321089  RH  011%=      5-min Rain = 0
KDR1 242110Z 26013G20KT 23/M09 A3007 RMK A01 T02291086  RH  011%=      5-min Rain = 0
KDR1 242115Z 23010G16KT 23/M09 A3007 RMK A01 T02271085  RH  012%=      5-min Rain = 0
KDR1 242120Z 24010G18KT 22/M09 A3006 RMK A01 T02231087  RH  012%=      5-min Rain = 0
KDR1 242125Z 25014G19KT 23/M09 A3007 RMK A01 T02291089  RH  011%=      5-min Rain = 0
KDR1 242130Z 25012G18KT 23/M09 A3007 RMK A01 T02291089  RH  011%=      5-min Rain = 0
KDR1 242135Z 25008G16KT 22/M09 A3007 RMK A01 T02241089  RH  012%=      5-min Rain = 0
KDR1 242140Z 25008G13KT 23/M09 A3007 RMK A01 T02271087  RH  011%=      5-min Rain = 0
KDR1 242145Z 23007G15KT 22/M09 A3007 RMK A01 T02231091  RH  011%=      5-min Rain = 0
KDR1 242150Z 25003G9KT 23/M09 A3006 RMK A01 T02251091  RH  011%=      5-min Rain = 0
KDR1 242155Z 24011G19KT 23/M10 A3006 RMK A01 T02291096  RH  011%=      5-min Rain = 0
KDR1 242200Z 24014G21KT 23/M10 A3006 RMK A01 T02341098  RH  010%=      5-min Rain = 0
KDR1 242205Z 26010G17KT 23/M10 A3006 RMK A01 T02341097  RH  010%=      5-min Rain = 0
KDR1 242210Z 26009G15KT 23/M10 A3006 RMK A01 T02291102  RH  010%=      5-min Rain = 0
KDR1 242215Z 26008G13KT 23/M10 A3006 RMK A01 T02321100  RH  010%=      5-min Rain = 0
KDR1 242220Z 27008G15KT 23/M10 A3006 RMK A01 T02281099  RH  010%=      5-min Rain = 0
KDR1 242225Z 24010G20KT 23/M10 A3006 RMK A01 T02301098  RH  010%=      5-min Rain = 0
KDR1 242230Z 24009KT 23/M10 A3006 RMK A01 T02281099  RH  010%=      5-min Rain = 0
KDR1 242235Z 25007G18KT 23/M10 A3006 RMK A01 T02261099  RH  010%=      5-min Rain = 0
KDR1 242240Z 23012G17KT 23/M10 A3005 RMK A01 T02301096  RH  011%=      5-min Rain = 0
KDR1 242245Z 23008KT 23/M10 A3005 RMK A01 T02281101  RH  010%=      5-min Rain = 0
KDR1 242250Z 22009KT 23/M10 A3005 RMK A01 T02261098  RH  011%=      5-min Rain = 0
KDR1 242255Z 28008KT 23/M10 A3005 RMK A01 T02261103  RH  010%=      5-min Rain = 0
KDR1 242300Z 28006G11KT 23/M11 A3005 RMK A01 T02261107  RH  010%=      5-min Rain = 0
KDR1 242305Z 28006G11KT 23/M11 A3005 RMK A01 T02281105  RH  010%=      5-min Rain = 0
KDR1 242310Z 28005G10KT 23/M11 A3005 RMK A01 T02261106  RH  010%=      5-min Rain = 0
KDR1 242315Z 26004KT 23/M11 A3005 RMK A01 T02261106  RH  010%=      5-min Rain = 0
KDR1 242320Z 22004KT 23/M11 A3005 RMK A01 T02271106  RH  010%=      5-min Rain = 0
KDR1 242325Z 27009G14KT 23/M11 A3004 RMK A01 T02281105  RH  010%=      5-min Rain = 0
KDR1 242330Z 29007KT 23/M11 A3005 RMK A01 T02271105  RH  010%=      5-min Rain = 0
KDR1 242335Z 25007G12KT 23/M11 A3005 RMK A01 T02281105  RH  010%=      5-min Rain = 0
KDR1 242340Z 24008KT 23/M10 A3005 RMK A01 T02271103  RH  010%=      5-min Rain = 0
KDR1 242345Z 24011KT 23/M10 A3005 RMK A01 T02271104  RH  010%=      5-min Rain = 0
KDR1 242350Z 22008KT 22/M11 A3005 RMK A01 T02221105  RH  010%=      5-min Rain = 0
KDR1 242355Z 24007KT 22/M11 A3005 RMK A01 T02241105  RH  010%=      5-min Rain = 0
KDR1 250000Z 25006G11KT 23/M11 A3005 RMK A01 T02251106  RH  010%=      5-min Rain = 0
KDR1 250005Z 24008G13KT 22/M11 A3005 RMK A01 T02211106  RH  010%=      5-min Rain = 0
KDR1 250010Z 23007KT 22/M11 A3005 RMK A01 T02181105  RH  011%=      5-min Rain = 0
KDR1 250015Z 24008KT 22/M10 A3005 RMK A01 T02201103  RH  011%=      5-min Rain = 0
KDR1 250020Z 22008KT 22/M10 A3006 RMK A01 T02151102  RH  011%=      5-min Rain = 0
KDR1 250025Z 21008KT 21/M10 A3006 RMK A01 T02131100  RH  011%=      5-min Rain = 0
KDR1 250030Z 21007KT 21/M10 A3006 RMK A01 T02121099  RH  012%=      5-min Rain = 0
KDR1 250035Z 22006KT 21/M10 A3006 RMK A01 T02101098  RH  012%=      5-min Rain = 0
KDR1 250040Z 21006KT 21/M10 A3006 RMK A01 T02071099  RH  012%=      5-min Rain = 0
KDR1 250045Z 22005KT 20/M10 A3006 RMK A01 T02041096  RH  012%=      5-min Rain = 0
KDR1 250050Z 22007KT 20/M09 A3007 RMK A01 T01991094  RH  013%=      5-min Rain = 0
KDR1 250055Z 24007KT 19/M10 A3007 RMK A01 T01931095  RH  013%=      5-min Rain = 0
KDR1 250100Z 28006KT 19/M10 A3007 RMK A01 T01871097  RH  014%=      5-min Rain = 0
KDR1 250105Z 28006KT 18/M11 A3007 RMK A01 T01841106  RH  013%=      5-min Rain = 0
KDR1 250110Z 28007KT 18/M11 A3007 RMK A01 T01771111  RH  013%=      5-min Rain = 0
KDR1 250115Z 27008KT 18/M12 A3007 RMK A01 T01811118  RH  012%=      5-min Rain = 0
KDR1 250120Z 27009KT 17/M12 A3007 RMK A01 T01711115  RH  013%=      5-min Rain = 0
KDR1 250125Z 27010KT 17/M11 A3008 RMK A01 T01651113  RH  014%=      5-min Rain = 0
KDR1 250130Z 28010KT 16/M11 A3008 RMK A01 T01641113  RH  014%=      5-min Rain = 0
KDR1 250135Z 28010KT 16/M11 A3009 RMK A01 T01631113  RH  014%=      5-min Rain = 0
KDR1 250140Z 28010KT 16/M12 A3009 RMK A01 T01621115  RH  014%=      5-min Rain = 0
KDR1 250145Z 28009KT 16/M12 A3009 RMK A01 T01591116  RH  014%=      5-min Rain = 0
KDR1 250150Z 27008KT 16/M12 A3009 RMK A01 T01581119  RH  014%=      5-min Rain = 0
KDR1 250155Z 27008KT 15/M12 A301 RMK A01 T01481116  RH  015%=      5-min Rain = 0
KDR1 250200Z 27007KT 14/M12 A301 RMK A01 T01441115  RH  015%=      5-min Rain = 0
KDR1 250205Z 27009G14KT 14/M12 A301 RMK A01 T01441117  RH  015%=      5-min Rain = 0
KDR1 250210Z 27010KT 14/M12 A301 RMK A01 T01441117  RH  015%=      5-min Rain = 0
KDR1 250215Z 28011KT 15/M12 A301 RMK A01 T01511118  RH  014%=      5-min Rain = 0
KDR1 250220Z 28013KT 15/M12 A301 RMK A01 T01521118  RH  014%=      5-min Rain = 0
KDR1 250225Z 29013KT 15/M12 A301 RMK A01 T01531117  RH  014%=      5-min Rain = 0
KDR1 250230Z 29015KT 15/M12 A3011 RMK A01 T01521116  RH  015%=      5-min Rain = 0
KDR1 250235Z 29015KT 16/M12 A3011 RMK A01 T01621118  RH  013%=      5-min Rain = 0
KDR1 250240Z 29015G20KT 16/M12 A3011 RMK A01 T01641117  RH  013%=      5-min Rain = 0
KDR1 250245Z 29016G21KT 17/M12 A3012 RMK A01 T01661117  RH  013%=      5-min Rain = 0
KDR1 250250Z 28014KT 16/M12 A3012 RMK A01 T01631116  RH  014%=      5-min Rain = 0
KDR1 250255Z 28011KT 15/M12 A3012 RMK A01 T01531115  RH  015%=      5-min Rain = 0
KDR1 250300Z 28013KT 15/M11 A3012 RMK A01 T01461112  RH  016%=      5-min Rain = 0
KDR1 250305Z 28013KT 14/M11 A3012 RMK A01 T01411110  RH  016%=      5-min Rain = 0
KDR1 250310Z 29013KT 14/M11 A3013 RMK A01 T01441108  RH  016%=      5-min Rain = 0
KDR1 250315Z 28012KT 14/M11 A3013 RMK A01 T01381107  RH  017%=      5-min Rain = 0
KDR1 250320Z 28013G18KT 13/M11 A3013 RMK A01 T01341106  RH  018%=      5-min Rain = 0
KDR1 250325Z 28014KT 13/M11 A3013 RMK A01 T01341106  RH  018%=      5-min Rain = 0
KDR1 250330Z 29013KT 13/M11 A3014 RMK A01 T01341105  RH  018%=      5-min Rain = 0
KDR1 250335Z 28013KT 14/M11 A3014 RMK A01 T01421106  RH  017%=      5-min Rain = 0
KDR1 250340Z 28012KT 14/M10 A3014 RMK A01 T01351104  RH  018%=      5-min Rain = 0
KDR1 250345Z 28012KT 13/M10 A3014 RMK A01 T01301103  RH  019%=      5-min Rain = 0
KDR1 250350Z 29012KT 12/M10 A3015 RMK A01 T01241102  RH  020%=      5-min Rain = 0
KDR1 250355Z 29014KT 13/M10 A3015 RMK A01 T01331101  RH  019%=      5-min Rain = 0
KDR1 250400Z 29011KT 13/M10 A3015 RMK A01 T01341102  RH  018%=      5-min Rain = 0
KDR1 250405Z 27008KT 11/M10 A3015 RMK A01 T01051100  RH  022%=      5-min Rain = 0
KDR1 250410Z 27008KT 10/M10 A3015 RMK A01 T01011098  RH  024%=      5-min Rain = 0
KDR1 250415Z 27009KT 10/M10 A3015 RMK A01 T01011098  RH  024%=      5-min Rain = 0
KDR1 250420Z 27010KT 11/M10 A3015 RMK A01 T01051096  RH  023%=      5-min Rain = 0
KDR1 250425Z 27009KT 12/M10 A3015 RMK A01 T01151097  RH  022%=      5-min Rain = 0
KDR1 250430Z 28010KT 12/M10 A3015 RMK A01 T01181099  RH  021%=      5-min Rain = 0
KDR1 250435Z 27011KT 12/M10 A3015 RMK A01 T01231099  RH  020%=      5-min Rain = 0
KDR1 250440Z 27009KT 11/M10 A3015 RMK A01 T01101097  RH  022%=      5-min Rain = 0
KDR1 250445Z 27009KT 11/M10 A3015 RMK A01 T01091097  RH  022%=      5-min Rain = 0
KDR1 250450Z 26008KT 10/M10 A3016 RMK A01 T01021096  RH  024%=      5-min Rain = 0
KDR1 250455Z 27007KT 10/M10 A3016 RMK A01 T00991096  RH  024%=      5-min Rain = 0

Page generated in 0.009 seconds.